Airfield :
LOGIN :

Register | Disclaimer

   EN    FR    IT 

 










Legend :    VFR   Marginal VFR   IFR   Intensive IFR   Very Intensive IFR
Visi :
Ceiling :
>= 8 km
>= 3000ft
5 to 8 km
1000 to 3000 ft
1500m to 5 km
500 to 1000 ft
800 to 1500m
200 to 500 ft
< 800m
< 200 ft
Symbols :   Thunderstorms  Fog  Heavy snow  Heavy precipitations  Wind > 20 kt
SIGMETs :     Misc.  Thunderstorms  Icing  Turbulence  Mountain Waves  Volcanic Ashes






- Airport Elevation : 479 ft
- IATA code : DOL


LFRG - Deauville

CURRENT METAR :
  • 240400Z AUTO 10004KT 070V130 3800 BR OVC004 M00/M01 Q1023

EXPIRED METARs :
  • 240330Z AUTO 10004KT 4200 BR OVC005 00/M01 Q1023
  • 240300Z AUTO 13005KT 3900 BR OVC005 00/M00 Q1023
  • 240230Z AUTO 12006KT 4000 BR OVC005 01/M00 Q1024
  • 240200Z AUTO 12005KT 4000 BR OVC005 01/00 Q1024
  • 240130Z AUTO 10004KT 060V130 4000 BR OVC005 01/00 Q1024

Expired Forecast.
ATIS : +33 2 31 65 65 36



MET'MAP, your aeronautical weather chart ! - Copyright ORBIFLY December 2007 - Disclaimer

ORBIFLY MET'MAP TEAM :

Programming & Development : Alexandra Zaïnal
Concept & original design : Baudouin d'Aumeries
Assistance for programming : Marc-Olivier Méhu
Technical & hardware support : Manuel Goepfert

Contact : metmap@orbifly.com




SOURCES & CREDITS :

   NOAA